This is the latest recevied weather packets stored in our database for station/object KG2V. If no packets are shown the sender has not sent any weather packets the latest 1 day(s).
| Time | Temp. | Humidity | Pressure | Rain* | Wind** | Luminosity | Snow |
|---|---|---|---|---|---|---|---|
| 1778098786 | 10° C | 82% | 1005.8 hPa | 0 mm | - | 102 W/m² | - |
| 1778097573 | 10° C | 82% | 1005.5 hPa | 0 mm | - | 188 W/m² | - |
| 1778097270 | 10° C | 83% | 1005.8 hPa | 0 mm | - | 217 W/m² | - |
| 1778096664 | 10° C | 83% | 1005.7 hPa | 0 mm | - | 203 W/m² | - |
| 1778096356 | 10° C | 84% | 1005.7 hPa | 0 mm | - | 211 W/m² | - |
| 1778096053 | 10° C | 85% | 1005.6 hPa | 0 mm | - | 185 W/m² | - |
| 1778095749 | 9.44° C | 86% | 1005.8 hPa | 0 mm | - | 226 W/m² | - |
| 1778094233 | 9.44° C | 86% | 1005.6 hPa | 0 mm | - | 266 W/m² | - |
| 1778093930 | 8.89° C | 85% | 1005.7 hPa | 0 mm | - | 241 W/m² | - |
| 1778092110 | 7.78° C | 91% | 1006 hPa | 0 mm | - | 124 W/m² | - |
| 1778091807 | 7.78° C | 91% | 1005.9 hPa | 0 mm | - | 145 W/m² | - |
| 1778091505 | 7.78° C | 92% | 1005.9 hPa | 0 mm | - | 162 W/m² | - |
| 1778090595 | 7.78° C | 92% | 1006.2 hPa | 0 mm | - | 100 W/m² | - |
| 1778088474 | 7.78° C | 93% | 1005.6 hPa | 0 mm | - | 159 W/m² | - |
| 1778088171 | 7.78° C | 94% | 1005.6 hPa | 0 mm | - | 174 W/m² | - |
| 1778086052 | 7.78° C | 98% | 1005.3 hPa | 0 mm | - | 223 W/m² | - |
| 1778085140 | 7.22° C | 99% | 1005.3 hPa | 0 mm | - | 261 W/m² | - |
| 1778084231 | 7.22° C | 99% | 1005.4 hPa | 0 mm | - | 178 W/m² | - |
| 1778083929 | 7.22° C | 99% | 1005.3 hPa | 0 mm | - | 186 W/m² | - |
| 1778083016 | 6.67° C | 99% | 1005.4 hPa | 0 mm | - | 183 W/m² | - |
| 1778080974 | 7.22° C | 99% | 1005.4 hPa | 0 mm | - | 134 W/m² | - |
| 1778080673 | 6.67° C | 99% | 1005.3 hPa | 0 mm | - | 212 W/m² | - |
| 1778080369 | 6.67° C | 99% | 1005 hPa | 0 mm | - | 202 W/m² | - |
| 1778079763 | 6.67° C | 99% | 1005 hPa | 0 mm | - | 123 W/m² | - |
| 1778079156 | 6.67° C | 99% | 1005 hPa | 0 mm | - | 127 W/m² | - |
* Rain latest hour (hover to see other rain measurements)
** Current wind speed in m/s (hover to see current wind gust speed)